Time;durP1;ratioP1;P1;durP2;ratioP2;P2;SDS_P1;SDS_P2;PMS_P1;PMS_P2;Temp;Humidity;BMP_temperature;BMP_pressure;BME280_temperature;BME280_humidity;BME280_pressure;Samples;Min_cycle;Max_cycle;Signal;HPM_P1;HPM_P2
2022/08/24 00:01:48;;;;;;;34.45;31.33;;;19.00;99.90;;;;;;5067421;28;20117;-81
2022/08/24 00:04:24;;;;;;;35.25;32.25;;;18.90;99.90;;;;;;5070941;28;20654;-81
2022/08/24 00:07:01;;;;;;;37.33;33.63;;;18.90;99.90;;;;;;5069248;28;20059;-81
2022/08/24 00:09:32;;;;;;;37.47;33.63;;;18.80;99.90;;;;;;5068000;28;20042;-81
2022/08/24 00:12:22;;;;;;;38.13;34.67;;;18.80;99.90;;;;;;5071724;28;20047;-82
2022/08/24 00:14:50;;;;;;;37.90;34.17;;;18.70;99.90;;;;;;5068907;28;20083;-81
2022/08/24 00:17:28;;;;;;;39.03;34.85;;;19.10;99.90;;;;;;5067538;28;20193;-81
2022/08/24 00:20:06;;;;;;;;;;;;;;;;;;;;;
2022/08/24 00:22:44;;;;;;;;;;;;;;;;;;;;;
2022/08/24 00:25:23;;;;;;;;;;;;;;;;;;;;;
2022/08/24 00:28:01;;;;;;;39.25;35.50;;;18.80;99.90;;;;;;5074237;28;20052;-82
2022/08/24 00:30:41;;;;;;;37.58;33.75;;;18.40;99.90;;;;;;5067401;28;20037;-81
2022/08/24 00:33:43;;;;;;;38.40;34.65;;;18.40;99.90;;;;;;5072416;28;20543;-81
2022/08/24 00:36:47;;;;;;;;;;;;;;;;;;;;;
2022/08/24 00:39:47;;;;;;;38.75;35.25;;;18.40;99.90;;;;;;5066816;28;20059;-82
2022/08/24 00:42:27;;;;;;;37.38;33.72;;;18.50;99.90;;;;;;5071281;28;20044;-81
2022/08/24 00:47:48;;;;;;;32.45;29.45;;;18.20;99.90;;;;;;5048129;28;20077;-82
2022/08/24 00:50:24;;;;;;;31.52;28.55;;;18.20;99.90;;;;;;5068227;28;20048;-82
2022/08/24 00:52:56;;;;;;;33.97;30.70;;;18.10;99.90;;;;;;5066696;28;20047;-81
2022/08/24 00:55:43;;;;;;;34.72;31.30;;;18.10;99.90;;;;;;5049117;28;20059;-82
2022/08/24 00:58:15;;;;;;;34.40;30.70;;;18.00;99.90;;;;;;5065967;28;20052;-80
2022/08/24 01:00:47;;;;;;;30.77;27.98;;;17.90;99.90;;;;;;5065678;28;20041;-80
2022/08/24 01:03:15;;;;;;;34.30;30.85;;;17.90;99.90;;;;;;5070665;28;20045;-81
2022/08/24 01:05:41;;;;;;;36.65;33.17;;;17.90;99.90;;;;;;5073201;28;20488;-81
2022/08/24 01:08:10;;;;;;;41.03;37.10;;;17.90;99.90;;;;;;5096994;28;20062;-82
2022/08/24 01:10:43;;;;;;;38.90;35.28;;;17.90;99.90;;;;;;5067900;28;20937;-81
2022/08/24 01:13:11;;;;;;;35.88;32.67;;;18.20;99.90;;;;;;5068471;28;20047;-81
2022/08/24 01:15:41;;;;;;;36.35;33.00;;;18.00;99.90;;;;;;5064556;28;20080;-81
2022/08/24 01:21:18;;;;;;;34.58;31.42;;;18.00;99.90;;;;;;5064310;28;20087;-80
2022/08/24 01:23:53;;;;;;;34.80;31.67;;;17.90;99.90;;;;;;5063879;28;20049;-80
2022/08/24 01:26:32;;;;;;;36.73;33.27;;;17.80;99.90;;;;;;5066576;28;20511;-81
2022/08/24 01:29:05;;;;;;;33.78;30.42;;;17.80;99.90;;;;;;5065585;28;21450;-80
2022/08/24 01:31:31;;;;;;;30.05;27.35;;;17.70;99.90;;;;;;5068819;28;20091;-81
2022/08/24 01:33:57;;;;;;;29.45;26.48;;;17.60;99.90;;;;;;5065197;28;20040;-81
2022/08/24 01:36:37;;;;;;;29.23;26.60;;;17.50;99.90;;;;;;5063435;28;20050;-81
2022/08/24 01:39:13;;;;;;;28.45;25.92;;;17.50;99.90;;;;;;5050240;28;20052;-81
2022/08/24 01:41:45;;;;;;;30.48;27.45;;;17.40;99.90;;;;;;5051843;28;20037;-81
2022/08/24 01:44:11;;;;;;;34.42;31.48;;;17.40;99.90;;;;;;5066856;28;20090;-81
2022/08/24 01:46:36;;;;;;;31.17;28.35;;;17.40;99.90;;;;;;5069981;28;20816;-82
2022/08/24 01:49:02;;;;;;;36.13;32.85;;;17.40;99.90;;;;;;5062105;28;20040;-81
2022/08/24 01:51:30;;;;;;;33.35;30.13;;;17.30;99.90;;;;;;5061472;28;20638;-81
2022/08/24 01:53:58;;;;;;;31.98;29.27;;;17.30;99.90;;;;;;5067349;28;20594;-82
2022/08/24 01:56:24;;;;;;;32.22;29.27;;;17.30;99.90;;;;;;5064673;28;20086;-81
2022/08/24 01:58:50;;;;;;;32.88;29.08;;;17.30;99.90;;;;;;5059253;28;20052;-82
2022/08/24 02:01:17;;;;;;;36.00;30.88;;;17.30;99.90;;;;;;5096129;28;20041;-81
2022/08/24 02:03:43;;;;;;;27.55;24.88;;;17.40;99.90;;;;;;5061728;28;20394;-81
2022/08/24 02:06:09;;;;;;;40.60;36.38;;;17.30;99.90;;;;;;5061288;28;20036;-80
2022/08/24 02:08:35;;;;;;;42.53;38.60;;;17.30;99.90;;;;;;5063685;28;20048;-82
2022/08/24 02:11:04;;;;;;;38.40;34.65;;;17.30;99.90;;;;;;5064011;28;20629;-81
2022/08/24 02:13:29;;;;;;;35.97;32.78;;;17.40;99.90;;;;;;5063785;28;20068;-81
2022/08/24 02:15:56;;;;;;;33.90;30.58;;;17.40;99.90;;;;;;5060659;28;20040;-82
2022/08/24 02:18:21;;;;;;;33.20;30.38;;;17.40;99.90;;;;;;5061352;28;20106;-81
2022/08/24 02:20:47;;;;;;;37.03;33.53;;;17.30;99.90;;;;;;5063669;28;20044;-80
2022/08/24 02:23:13;;;;;;;35.17;31.92;;;17.40;99.90;;;;;;5064680;28;20084;-81
2022/08/24 02:25:42;;;;;;;31.73;29.00;;;17.40;99.90;;;;;;5063799;28;20472;-81
2022/08/24 02:28:07;;;;;;;35.08;32.17;;;17.40;99.90;;;;;;5065964;28;20580;-82
2022/08/24 02:30:33;;;;;;;21.80;19.90;;;17.30;99.90;;;;;;5063620;28;20116;-81
2022/08/24 02:32:59;;;;;;;26.33;24.25;;;17.30;99.90;;;;;;5063439;28;20392;-81
2022/08/24 02:35:26;;;;;;;25.20;23.10;;;17.20;99.90;;;;;;5063060;28;20413;-81
2022/08/24 02:38:01;;;;;;;28.45;26.00;;;17.10;99.90;;;;;;5063673;28;20048;-81
2022/08/24 02:40:27;;;;;;;;;;;17.10;99.90;;;;;;5060818;28;20493;-81
2022/08/24 02:42:52;;;;;;;;;;;17.10;99.90;;;;;;5063286;28;19920;-80
2022/08/24 02:45:19;;;;;;;29.40;26.70;;;17.00;99.90;;;;;;5063296;28;19927;-81
2022/08/24 02:47:44;;;;;;;30.10;27.33;;;17.00;99.90;;;;;;5061472;28;20522;-81
2022/08/24 02:50:15;;;;;;;29.17;26.50;;;17.10;99.90;;;;;;5067146;28;20095;-80
2022/08/24 02:52:41;;;;;;;29.35;26.48;;;17.10;99.90;;;;;;5070582;28;20119;-81
2022/08/24 02:55:10;;;;;;;29.85;27.05;;;17.10;99.90;;;;;;5067592;28;20182;-80
2022/08/24 02:57:36;;;;;;;31.58;28.77;;;17.00;99.90;;;;;;5061289;28;20098;-82
2022/08/24 03:00:04;;;;;;;30.20;27.50;;;16.90;99.90;;;;;;5093143;27;20412;-80
2022/08/24 03:02:37;;;;;;;32.85;29.88;;;16.90;99.90;;;;;;5064903;28;20201;-80
2022/08/24 03:05:04;;;;;;;33.40;29.25;;;17.00;99.90;;;;;;5075103;28;20047;-81
2022/08/24 03:07:29;;;;;;;26.23;23.92;;;17.00;99.90;;;;;;5064576;28;20045;-80
2022/08/24 03:09:55;;;;;;;31.60;28.73;;;16.90;99.90;;;;;;5092612;28;20064;-80
2022/08/24 03:12:20;;;;;;;30.42;27.50;;;16.90;99.90;;;;;;5064609;28;20665;-80
2022/08/24 03:14:46;;;;;;;30.17;27.60;;;16.80;99.90;;;;;;5065581;28;20436;-81
2022/08/24 03:17:14;;;;;;;32.08;28.98;;;16.80;99.90;;;;;;5062672;28;20385;-81
2022/08/24 03:19:41;;;;;;;30.35;27.60;;;16.90;99.90;;;;;;5065013;28;20058;-81
2022/08/24 03:22:07;;;;;;;29.92;27.23;;;16.90;99.90;;;;;;5066813;28;20032;-81
2022/08/24 03:24:32;;;;;;;29.08;26.00;;;16.90;99.90;;;;;;5065417;28;20042;-80
2022/08/24 03:26:58;;;;;;;31.63;28.63;;;16.80;99.90;;;;;;5065893;28;20523;-82
2022/08/24 03:29:31;;;;;;;33.67;30.67;;;16.80;99.90;;;;;;5058018;28;20057;-81
2022/08/24 03:31:58;;;;;;;32.22;28.95;;;16.80;99.90;;;;;;5063252;28;20063;-80
2022/08/24 03:34:23;;;;;;;28.27;25.98;;;16.70;99.90;;;;;;5064296;28;20033;-81
2022/08/24 03:36:49;;;;;;;29.92;27.42;;;16.70;99.90;;;;;;5061642;28;20033;-81
2022/08/24 03:39:15;;;;;;;26.98;24.67;;;16.70;99.90;;;;;;5063382;28;20040;-82
2022/08/24 03:41:41;;;;;;;30.08;27.23;;;16.80;99.90;;;;;;5062429;28;20519;-81
2022/08/24 03:44:15;;;;;;;23.77;21.73;;;16.60;99.90;;;;;;5064298;28;20040;-82
2022/08/24 03:46:41;;;;;;;24.23;22.33;;;16.60;99.90;;;;;;5062378;28;20100;-81
2022/08/24 03:49:08;;;;;;;26.58;24.48;;;16.50;99.90;;;;;;5061766;28;20119;-82
2022/08/24 03:51:35;;;;;;;25.40;23.30;;;16.50;99.90;;;;;;5061566;28;20127;-81
2022/08/24 03:54:08;;;;;;;24.85;22.90;;;16.50;99.90;;;;;;5064748;28;20062;-82
2022/08/24 03:56:34;;;;;;;30.02;27.33;;;16.40;99.90;;;;;;5063937;28;20040;-81
2022/08/24 03:59:00;;;;;;;34.85;31.52;;;16.40;99.90;;;;;;5065571;28;20059;-81
2022/08/24 04:01:28;;;;;;;28.60;26.15;;;16.50;99.90;;;;;;5059724;28;20096;-81
2022/08/24 04:03:54;;;;;;;28.55;26.15;;;16.50;99.90;;;;;;5063523;28;20151;-80
2022/08/24 04:06:21;;;;;;;31.40;28.52;;;16.50;99.90;;;;;;5062035;28;20044;-81
2022/08/24 04:08:51;;;;;;;36.10;32.72;;;16.40;99.90;;;;;;5045554;28;20045;-81
2022/08/24 04:11:19;;;;;;;35.92;32.70;;;16.40;99.90;;;;;;5065848;28;20499;-80
2022/08/24 04:13:45;;;;;;;38.42;34.92;;;16.40;99.90;;;;;;5058891;28;20369;-80
2022/08/24 04:16:14;;;;;;;37.67;34.22;;;16.30;99.90;;;;;;5064012;28;20106;-81
2022/08/24 04:18:44;;;;;;;44.25;39.95;;;16.30;99.90;;;;;;5057392;28;20049;-80
2022/08/24 04:21:23;;;;;;;38.35;35.00;;;16.40;99.90;;;;;;5061434;28;20132;-80
2022/08/24 04:23:51;;;;;;;37.30;34.03;;;16.30;99.90;;;;;;5064083;28;20876;-81
2022/08/24 04:26:17;;;;;;;38.63;35.20;;;16.30;99.90;;;;;;5065366;28;20052;-82
2022/08/24 04:28:43;;;;;;;38.75;34.85;;;16.30;99.90;;;;;;5062637;28;21243;-80
2022/08/24 04:31:09;;;;;;;38.08;34.40;;;16.40;99.90;;;;;;5064191;28;20041;-80
2022/08/24 04:33:35;;;;;;;38.28;34.45;;;16.40;99.90;;;;;;5069224;28;20036;-81
2022/08/24 04:36:01;;;;;;;35.97;32.67;;;16.50;99.90;;;;;;5066288;28;20105;-81
2022/08/24 04:38:28;;;;;;;33.00;29.92;;;16.50;99.90;;;;;;5066012;28;20044;-78
2022/08/24 04:40:57;;;;;;;34.65;31.38;;;16.60;99.90;;;;;;5063566;28;20056;-80
2022/08/24 04:43:24;;;;;;;34.08;30.98;;;16.60;99.90;;;;;;5078444;28;20135;-80
2022/08/24 04:45:50;;;;;;;34.97;31.38;;;16.60;99.90;;;;;;5065019;28;20047;-80
2022/08/24 04:48:16;;;;;;;34.50;31.35;;;16.70;99.90;;;;;;5071836;28;20135;-81
2022/08/24 04:50:43;;;;;;;37.38;33.70;;;16.70;99.90;;;;;;5068790;28;20049;-81
2022/08/24 04:53:09;;;;;;;33.72;30.88;;;16.80;99.90;;;;;;5070155;28;20044;-80
2022/08/24 04:55:43;;;;;;;35.45;31.90;;;16.80;99.90;;;;;;5068276;28;20047;-80
2022/08/24 04:58:13;;;;;;;31.08;28.35;;;16.80;99.90;;;;;;5067224;28;20085;-81
2022/08/24 05:00:39;;;;;;;32.05;28.75;;;16.80;99.90;;;;;;5062235;28;20044;-81
2022/08/24 05:03:05;;;;;;;29.05;26.45;;;16.80;99.90;;;;;;5064556;28;20098;-81
2022/08/24 05:05:32;;;;;;;30.90;28.17;;;16.90;99.90;;;;;;5067060;28;20484;-81
2022/08/24 05:08:07;;;;;;;30.38;27.48;;;17.20;99.90;;;;;;5056183;28;20048;-81
2022/08/24 05:10:33;;;;;;;29.75;26.85;;;17.00;99.90;;;;;;5065291;28;20041;-82
2022/08/24 05:12:58;;;;;;;28.88;26.15;;;17.00;99.90;;;;;;5062269;28;20033;-82
2022/08/24 05:15:24;;;;;;;29.08;26.25;;;17.30;99.90;;;;;;5063506;28;20045;-81
2022/08/24 05:17:50;;;;;;;25.35;22.98;;;17.80;99.90;;;;;;5063111;28;20037;-81
2022/08/24 05:20:44;;;;;;;23.77;21.73;;;18.50;99.90;;;;;;5064122;28;20044;-81
2022/08/24 05:23:12;;;;;;;22.00;20.10;;;19.40;99.90;;;;;;5058629;28;20070;-81
2022/08/24 05:25:38;;;;;;;23.55;21.55;;;20.30;99.90;;;;;;5061752;28;20044;-82
2022/08/24 05:28:04;;;;;;;28.65;24.42;;;21.10;99.90;;;;;;5046069;28;20037;-81
2022/08/24 05:30:30;;;;;;;27.30;23.20;;;22.00;99.90;;;;;;5060536;28;20044;-82
2022/08/24 05:32:55;;;;;;;30.83;24.23;;;22.80;99.90;;;;;;5066086;28;20032;-82
2022/08/24 05:35:21;;;;;;;23.58;21.58;;;23.60;99.90;;;;;;5061136;28;20091;-82
2022/08/24 05:37:50;;;;;;;23.88;21.70;;;24.40;99.90;;;;;;5060152;28;20055;-83
2022/08/24 05:40:18;;;;;;;20.08;18.27;;;25.10;99.90;;;;;;5059003;28;20519;-82
2022/08/24 05:42:44;;;;;;;20.20;18.50;;;25.70;99.90;;;;;;5049064;28;20048;-82
2022/08/24 05:45:10;;;;;;;20.92;19.30;;;26.50;99.90;;;;;;5064275;28;20123;-82
2022/08/24 05:47:36;;;;;;;19.13;17.73;;;27.10;99.90;;;;;;5066688;28;20052;-82
2022/08/24 05:50:09;;;;;;;19.67;18.00;;;27.60;99.90;;;;;;5053720;28;20044;-83
2022/08/24 05:52:34;;;;;;;19.60;18.05;;;28.10;99.90;;;;;;5049748;28;20044;-82
2022/08/24 05:55:01;;;;;;;18.92;17.33;;;28.60;99.90;;;;;;5066966;28;20109;-82
2022/08/24 05:57:31;;;;;;;20.52;18.60;;;29.00;99.90;;;;;;5065419;28;20047;-81
2022/08/24 06:00:24;;;;;;;19.45;17.90;;;29.50;99.90;;;;;;5065157;28;20032;-81
2022/08/24 06:02:52;;;;;;;18.55;16.92;;;30.10;99.90;;;;;;5058703;28;20048;-82
2022/08/24 06:05:18;;;;;;;18.77;17.20;;;30.50;99.90;;;;;;5064669;28;20103;-81
2022/08/24 06:07:43;;;;;;;19.23;17.52;;;30.90;99.90;;;;;;5049693;28;20497;-80
2022/08/24 06:10:10;;;;;;;19.70;18.10;;;31.30;99.90;;;;;;5057316;28;20059;-83
2022/08/24 06:12:35;;;;;;;19.05;17.42;;;31.60;99.90;;;;;;5056372;28;20041;-82
2022/08/24 06:15:06;;;;;;;19.00;17.40;;;32.10;99.90;;;;;;5061398;28;20480;-82
2022/08/24 06:17:41;;;;;;;20.80;18.67;;;32.50;99.90;;;;;;5061532;28;20044;-81
2022/08/24 06:20:08;;;;;;;20.08;18.38;;;33.00;99.90;;;;;;5043945;28;20072;-81
2022/08/24 06:22:37;;;;;;;19.23;17.67;;;33.50;99.40;;;;;;5056214;28;20082;-81
2022/08/24 06:28:10;;;;;;;18.85;17.25;;;34.30;97.50;;;;;;5148934;22;20122;-79
2022/08/24 06:30:46;;;;;;;18.65;17.17;;;34.70;97.10;;;;;;5040463;28;20057;-79
2022/08/24 06:33:12;;;;;;;18.45;16.83;;;35.10;96.20;;;;;;5032993;28;20060;-78
2022/08/24 06:35:40;;;;;;;18.88;17.38;;;35.60;95.60;;;;;;5030370;28;20178;-78
2022/08/24 06:38:06;;;;;;;18.58;16.73;;;35.80;94.90;;;;;;5016595;28;20037;-77
2022/08/24 06:40:32;;;;;;;20.30;17.80;;;36.20;94.40;;;;;;5021758;28;20103;-78
2022/08/24 06:43:04;;;;;;;19.23;17.63;;;36.40;93.80;;;;;;5038184;28;20037;-80
2022/08/24 06:57:25;;;;;;;;;;;;;;;;;;;;;
2022/08/24 07:04:53;;;;;;;21.10;18.77;;;33.40;93.60;;;;;;4899595;29;20047;-81
2022/08/24 07:08:31;;;;;;;22.40;19.58;;;32.70;94.00;;;;;;4853481;29;20051;-80
2022/08/24 07:11:34;;;;;;;24.70;20.73;;;32.30;94.40;;;;;;4912181;28;20131;-82
2022/08/24 07:15:14;;;;;;;22.15;19.00;;;32.00;94.70;;;;;;4967349;28;20043;-81
2022/08/24 07:18:09;;;;;;;21.52;18.80;;;31.60;95.20;;;;;;4931064;28;20042;-80
2022/08/24 07:21:31;;;;;;;20.25;18.15;;;31.20;95.30;;;;;;5016697;28;20060;-83
2022/08/24 07:24:38;;;;;;;19.90;18.05;;;30.60;95.30;;;;;;5013218;28;21646;-81
2022/08/24 07:28:11;;;;;;;20.00;17.98;;;30.40;95.90;;;;;;5028197;28;20051;-82
2022/08/24 07:34:50;;;;;;;22.85;16.33;;;29.80;95.80;;;;;;5032735;28;20891;-83
2022/08/24 07:53:48;;;;;;;;;;;;;;;;;;;;;
2022/08/24 07:56:43;;;;;;;12.15;10.50;;;29.00;97.40;;;;;;4853618;28;20059;-82
2022/08/24 07:59:09;;;;;;;14.10;12.02;;;29.10;97.40;;;;;;4916655;28;20047;-81
2022/08/24 08:01:35;;;;;;;15.02;13.45;;;29.30;97.30;;;;;;4986831;28;20082;-83
2022/08/24 08:04:01;;;;;;;14.60;12.10;;;29.00;97.10;;;;;;5019604;28;21874;-81
2022/08/24 08:06:27;;;;;;;13.70;11.10;;;28.90;97.40;;;;;;5047349;28;20083;-83
2022/08/24 08:08:53;;;;;;;13.85;9.60;;;28.90;97.60;;;;;;5022967;28;20041;-82
2022/08/24 08:11:21;;;;;;;11.20;9.23;;;28.80;96.80;;;;;;5023305;28;20052;-81
2022/08/24 08:13:47;;;;;;;13.68;12.07;;;28.80;97.00;;;;;;5025853;28;20130;-82
2022/08/24 08:16:12;;;;;;;13.27;10.45;;;28.80;97.10;;;;;;5027945;28;21136;-83
2022/08/24 08:18:38;;;;;;;14.38;10.43;;;29.10;97.40;;;;;;5022028;28;20463;-83
2022/08/24 08:21:05;;;;;;;12.85;11.52;;;29.20;97.40;;;;;;5036591;28;20040;-82
2022/08/24 08:26:24;;;;;;;11.13;7.70;;;29.40;96.90;;;;;;5037493;28;20052;-83
2022/08/24 08:28:50;;;;;;;9.75;6.88;;;29.80;96.60;;;;;;5016888;28;20045;-81
2022/08/24 08:32:04;;;;;;;;;;;;;;;;;;;;;
2022/08/24 08:34:45;;;;;;;;;;;;;;;;;;;;;
2022/08/24 08:37:17;;;;;;;10.23;8.50;;;29.90;95.60;;;;;;5038295;28;20991;-82
2022/08/24 08:40:54;;;;;;;9.07;7.90;;;29.90;95.40;;;;;;5021655;28;20029;-84
2022/08/24 08:44:26;;;;;;;10.10;7.88;;;30.10;96.00;;;;;;4920431;29;20042;-81
2022/08/24 08:47:42;;;;;;;9.82;7.70;;;30.10;94.60;;;;;;4969327;28;20445;-82
2022/08/24 08:50:48;;;;;;;10.57;8.60;;;30.20;95.20;;;;;;5029007;28;20037;-80
2022/08/24 08:53:46;;;;;;;10.52;7.97;;;30.30;95.20;;;;;;5035781;28;20442;-79
2022/08/24 08:57:16;;;;;;;;;;;;;;;;;;;;;
2022/08/24 09:00:49;;;;;;;12.98;8.52;;;30.20;95.50;;;;;;5035070;28;20044;-83
2022/08/24 09:04:11;;;;;;;;;;;;;;;;;;;;;
2022/08/24 09:08:05;;;;;;;;;;;;;;;;;;;;;
2022/08/24 09:11:56;;;;;;;6.90;6.20;;;30.20;96.10;;;;;;5010043;28;20036;-82
2022/08/24 09:15:06;;;;;;;9.90;6.00;;;30.30;95.60;;;;;;5021878;28;20049;-82
2022/08/24 09:18:32;;;;;;;5.75;5.18;;;30.40;94.70;;;;;;5044723;28;20040;-82
2022/08/24 09:22:48;;;;;;;;;;;;;;;;;;;;;
2022/08/24 09:25:31;;;;;;;9.27;5.57;;;30.80;95.10;;;;;;5021373;28;20043;-82
2022/08/24 09:28:39;;;;;;;6.78;5.25;;;30.80;94.60;;;;;;5028248;28;20036;-82
2022/08/24 09:35:17;;;;;;;9.55;4.75;;;30.80;94.90;;;;;;5035278;28;19974;-82
2022/08/24 09:38:00;;;;;;;8.43;3.90;;;30.90;94.10;;;;;;5004792;28;20146;-82
2022/08/24 09:40:37;;;;;;;8.82;4.85;;;31.00;94.40;;;;;;5043165;28;20072;-83
2022/08/24 09:43:40;;;;;;;6.57;4.80;;;31.00;94.30;;;;;;5032572;28;20108;-82
2022/08/24 09:47:01;;;;;;;;;;;;;;;;;;;;;
2022/08/24 09:50:16;;;;;;;6.75;4.07;;;31.20;94.20;;;;;;5044630;28;20057;-82
2022/08/24 09:53:35;;;;;;;7.43;5.30;;;31.20;93.90;;;;;;5033645;28;20060;-83
2022/08/24 09:56:36;;;;;;;6.28;4.65;;;31.30;94.60;;;;;;5023839;28;20088;-82
2022/08/24 09:59:41;;;;;;;5.95;3.13;;;31.30;94.10;;;;;;5040455;28;20048;-83
2022/08/24 10:02:58;;;;;;;6.65;4.90;;;31.20;93.80;;;;;;5011493;28;20043;-82
2022/08/24 10:06:07;;;;;;;7.63;4.63;;;31.30;94.70;;;;;;5044789;28;20044;-81
2022/08/24 10:09:16;;;;;;;8.57;4.30;;;31.10;94.50;;;;;;4929577;28;21162;-82
2022/08/24 10:12:44;;;;;;;;;;;;;;;;;;;;;
2022/08/24 10:20:00;;;;;;;4.45;2.65;;;31.10;94.40;;;;;;4950174;28;20814;-83
2022/08/24 10:23:48;;;;;;;5.03;3.15;;;31.20;95.10;;;;;;4948915;28;20629;-82
2022/08/24 10:34:54;;;;;;;3.40;2.50;;;31.40;94.30;;;;;;4848964;29;20062;-82
2022/08/24 10:41:55;;;;;;;4.30;1.92;;;31.30;94.60;;;;;;4966848;28;20046;-82
2022/08/24 10:45:40;;;;;;;5.53;1.92;;;31.50;93.70;;;;;;4926030;29;20046;-82
2022/08/24 10:48:47;;;;;;;4.88;2.40;;;31.60;93.90;;;;;;4932663;28;20099;-85
2022/08/24 10:51:45;;;;;;;2.42;1.73;;;31.60;93.80;;;;;;4995444;28;20135;-83
2022/08/24 10:55:27;;;;;;;2.28;1.30;;;31.70;93.20;;;;;;5031135;28;20048;-83
2022/08/24 10:58:45;;;;;;;3.65;1.85;;;31.80;93.00;;;;;;4970550;28;20110;-85
2022/08/24 11:01:45;;;;;;;;;;;;;;;;;;;;;
2022/08/24 11:04:31;;;;;;;6.18;1.73;;;31.70;93.90;;;;;;5036632;28;20061;-83
2022/08/24 11:07:05;;;;;;;2.13;1.55;;;31.70;93.30;;;;;;5031831;28;20049;-84
2022/08/24 11:09:55;;;;;;;5.10;2.00;;;31.70;93.20;;;;;;5024873;28;20051;-81
2022/08/24 11:12:37;;;;;;;;;;;;;;;;;;;;;
2022/08/24 11:15:28;;;;;;;2.22;1.05;;;31.60;93.60;;;;;;5036771;28;20101;-82
2022/08/24 11:18:48;;;;;;;;;;;31.70;92.90;;;;;;4915377;29;20051;-83
2022/08/24 11:21:42;;;;;;;1.70;0.88;;;31.70;92.80;;;;;;4952644;28;19960;-82
2022/08/24 11:24:17;;;;;;;2.95;1.13;;;31.90;92.60;;;;;;5023200;28;20140;-83
2022/08/24 11:26:49;;;;;;;;;;;31.80;93.00;;;;;;5038539;28;20041;-82
2022/08/24 11:29:18;;;;;;;2.45;1.05;;;31.90;92.40;;;;;;5042095;28;19964;-84
2022/08/24 11:31:48;;;;;;;2.13;0.80;;;31.80;92.00;;;;;;5040351;28;20493;-83
2022/08/24 11:34:45;;;;;;;3.15;1.17;;;32.00;92.20;;;;;;5027920;28;20267;-83
2022/08/24 11:37:14;;;;;;;3.28;0.93;;;31.80;92.70;;;;;;5023219;28;20053;-83
2022/08/24 11:39:40;;;;;;;5.07;1.40;;;31.90;92.90;;;;;;5042259;28;20045;-83
2022/08/24 11:42:24;;;;;;;4.75;1.35;;;31.90;92.30;;;;;;5042829;28;20048;-83
2022/08/24 11:45:04;;;;;;;2.67;1.15;;;31.90;91.80;;;;;;5034689;28;20067;-83
2022/08/24 11:48:15;;;;;;;6.30;1.30;;;31.80;92.00;;;;;;5050755;28;20033;-82
2022/08/24 11:51:31;;;;;;;;;;;;;;;;;;;;;
2022/08/24 11:54:59;;;;;;;;;;;;;;;;;;;;;
2022/08/24 11:58:22;;;;;;;0.82;0.50;;;31.80;90.80;;;;;;5043938;28;20049;-82
2022/08/24 12:01:27;;;;;;;0.75;0.50;;;32.00;92.70;;;;;;5046056;28;20812;-84
2022/08/24 12:04:30;;;;;;;2.28;0.40;;;32.10;91.30;;;;;;4992407;28;20057;-83
2022/08/24 12:07:39;;;;;;;1.23;0.50;;;31.80;91.30;;;;;;5040706;28;20037;-82
2022/08/24 12:10:44;;;;;;;0.60;0.40;;;31.70;91.20;;;;;;5029694;28;20041;-82
2022/08/24 12:13:30;;;;;;;;;;;31.70;91.30;;;;;;5044242;28;20424;-84
2022/08/24 12:16:17;;;;;;;1.48;0.90;;;31.80;92.00;;;;;;5022766;28;19931;-84
2022/08/24 12:19:07;;;;;;;1.88;1.10;;;32.00;91.40;;;;;;5044339;28;20068;-83
2022/08/24 12:22:07;;;;;;;2.53;1.30;;;31.90;91.50;;;;;;5040591;28;20088;-82
2022/08/24 12:24:47;;;;;;;3.28;1.33;;;32.00;91.70;;;;;;5030470;28;20065;-83
2022/08/24 12:27:27;;;;;;;1.85;1.00;;;31.80;90.70;;;;;;5046943;28;20041;-81
2022/08/24 12:30:33;;;;;;;2.53;0.77;;;31.90;91.20;;;;;;5038339;28;20711;-82
2022/08/24 12:33:32;;;;;;;5.47;0.85;;;31.90;91.20;;;;;;5029764;28;20076;-83
2022/08/24 12:36:06;;;;;;;3.08;1.00;;;31.90;91.20;;;;;;5023771;28;20140;-82
2022/08/24 12:39:12;;;;;;;1.90;0.90;;;31.80;91.50;;;;;;5045526;28;20084;-83
2022/08/24 12:42:30;;;;;;;3.95;1.48;;;31.50;91.40;;;;;;5044760;28;20055;-84
2022/08/24 12:45:20;;;;;;;;;;;;;;;;;;;;;
2022/08/24 12:48:20;;;;;;;3.90;1.27;;;31.40;91.80;;;;;;5043864;28;20037;-82
2022/08/24 12:51:07;;;;;;;2.60;1.02;;;31.50;92.30;;;;;;5037111;28;20045;-83
2022/08/24 12:54:00;;;;;;;5.13;1.08;;;31.70;92.30;;;;;;5021559;28;20037;-82
2022/08/24 12:56:54;;;;;;;1.92;1.08;;;31.80;92.90;;;;;;5039517;28;20118;-82
2022/08/24 12:59:28;;;;;;;3.00;0.65;;;31.90;91.20;;;;;;5050435;28;20769;-81
2022/08/24 13:02:02;;;;;;;2.60;0.65;;;31.90;91.80;;;;;;5041785;28;20029;-82
2022/08/24 13:05:15;;;;;;;1.30;0.63;;;32.00;91.60;;;;;;5024231;28;20049;-83
2022/08/24 13:11:44;;;;;;;2.03;0.93;;;32.00;91.30;;;;;;4976270;28;20741;-83
2022/08/24 13:14:25;;;;;;;2.47;0.70;;;32.10;90.80;;;;;;4966947;28;20070;-83
2022/08/24 13:17:08;;;;;;;1.92;0.70;;;31.80;91.30;;;;;;5046380;28;20203;-84
2022/08/24 13:19:39;;;;;;;6.43;1.30;;;31.80;91.20;;;;;;5045881;28;20037;-80
2022/08/24 13:29:58;;;;;;;4.13;0.73;;;32.00;90.60;;;;;;5029225;28;20055;-83
2022/08/24 13:33:19;;;;;;;0.93;0.77;;;32.10;90.40;;;;;;5032578;28;20036;-83
2022/08/24 13:36:41;;;;;;;1.60;0.65;;;32.00;91.30;;;;;;5046945;28;20046;-83
2022/08/24 13:39:35;;;;;;;8.38;1.17;;;32.10;91.40;;;;;;4977791;28;20054;-83
2022/08/24 13:43:12;;;;;;;2.63;0.60;;;32.10;91.30;;;;;;5048535;28;20045;-83
2022/08/24 13:46:09;;;;;;;0.73;0.65;;;32.10;90.50;;;;;;5046916;28;20048;-84
2022/08/24 13:49:15;;;;;;;1.63;0.60;;;32.10;90.90;;;;;;5042704;28;20159;-84
2022/08/24 13:52:15;;;;;;;3.75;0.60;;;32.10;90.00;;;;;;5042209;28;20076;-83
2022/08/24 13:55:04;;;;;;;0.73;0.60;;;32.10;90.30;;;;;;5040533;28;20053;-83
2022/08/24 14:02:50;;;;;;;;;;;;;;;;;;;;;
2022/08/24 14:06:38;;;;;;;1.20;0.65;;;32.00;89.70;;;;;;4933227;28;20046;-83
2022/08/24 14:10:21;;;;;;;1.58;0.50;;;32.20;90.20;;;;;;4943322;28;20803;-83
2022/08/24 14:20:16;;;;;;;0.93;0.40;;;32.30;88.30;;;;;;5037122;28;20045;-84
2022/08/24 14:23:17;;;;;;;0.75;0.40;;;32.30;88.50;;;;;;5026994;28;20133;-84
2022/08/24 14:26:12;;;;;;;4.13;0.38;;;32.40;88.50;;;;;;5045140;28;20393;-84
2022/08/24 14:28:42;;;;;;;2.15;0.47;;;32.20;88.30;;;;;;5003379;28;20049;-84
2022/08/24 14:31:28;;;;;;;0.50;0.45;;;32.20;89.30;;;;;;5047074;28;20069;-84
2022/08/24 14:34:25;;;;;;;2.58;0.40;;;32.20;89.70;;;;;;5048671;28;20036;-84
2022/08/24 14:37:05;;;;;;;1.90;0.50;;;32.10;89.90;;;;;;5043791;28;20099;-84
2022/08/24 14:40:02;;;;;;;1.50;0.50;;;32.20;90.00;;;;;;5031892;28;20052;-83
2022/08/24 14:42:57;;;;;;;4.28;0.70;;;32.30;89.30;;;;;;5044664;28;20049;-85
2022/08/24 14:45:42;;;;;;;;;;;32.40;90.00;;;;;;5044506;28;20045;-84
2022/08/24 14:48:22;;;;;;;6.15;0.70;;;32.50;90.00;;;;;;5042886;28;19932;-84
2022/08/24 14:50:58;;;;;;;3.30;0.75;;;32.50;90.10;;;;;;5024447;28;20111;-82
2022/08/24 14:53:46;;;;;;;1.48;0.50;;;32.30;90.00;;;;;;5040322;28;20048;-83
2022/08/24 14:56:17;;;;;;;4.30;0.70;;;32.10;89.70;;;;;;5062707;28;20136;-83
2022/08/24 14:59:04;;;;;;;2.28;0.65;;;31.90;89.90;;;;;;5042434;28;20037;-82
2022/08/24 15:01:43;;;;;;;3.97;0.65;;;31.90;89.60;;;;;;5036251;28;20048;-82
2022/08/24 15:04:25;;;;;;;2.00;0.50;;;31.80;89.70;;;;;;5043625;28;20045;-84
2022/08/24 15:06:54;;;;;;;1.10;0.65;;;31.70;87.80;;;;;;5044028;28;20041;-83
2022/08/24 15:09:27;;;;;;;0.63;0.50;;;31.80;88.70;;;;;;5022036;28;20118;-84
2022/08/24 15:12:03;;;;;;;2.65;0.60;;;31.70;88.90;;;;;;5045286;28;20906;-81
2022/08/24 15:14:45;;;;;;;0.90;0.50;;;31.60;88.00;;;;;;5043557;28;20052;-83
2022/08/24 15:17:14;;;;;;;1.40;0.57;;;31.60;90.20;;;;;;5043173;28;20049;-84
2022/08/24 15:19:50;;;;;;;1.08;0.50;;;31.50;90.60;;;;;;5045474;28;20121;-82
2022/08/24 15:22:28;;;;;;;1.55;0.55;;;31.40;90.80;;;;;;5025241;28;20037;-82
2022/08/24 15:25:11;;;;;;;2.97;0.40;;;31.30;90.80;;;;;;5023665;28;20041;-82
2022/08/24 15:27:46;;;;;;;0.90;0.40;;;31.20;91.30;;;;;;5038438;28;20079;-82
2022/08/24 15:30:39;;;;;;;1.42;0.70;;;31.10;91.20;;;;;;5056264;28;20105;-82
2022/08/24 15:33:18;;;;;;;2.03;0.80;;;31.10;91.70;;;;;;5040286;28;20053;-82
2022/08/24 15:35:50;;;;;;;2.95;0.60;;;31.00;91.50;;;;;;5037175;28;20029;-83
2022/08/24 15:38:23;;;;;;;0.65;0.43;;;30.90;91.50;;;;;;5036379;28;20080;-82
2022/08/24 15:41:04;;;;;;;4.65;0.50;;;30.90;91.30;;;;;;5038173;28;20048;-83
2022/08/24 15:43:31;;;;;;;1.10;0.55;;;31.00;91.50;;;;;;5038767;28;20039;-83
2022/08/24 15:45:57;;;;;;;0.70;0.50;;;30.70;91.40;;;;;;5038149;28;20048;-82
2022/08/24 15:48:24;;;;;;;2.53;0.60;;;30.70;91.40;;;;;;5037763;28;20099;-82
2022/08/24 15:50:56;;;;;;;3.95;0.57;;;30.60;91.50;;;;;;5036254;28;20103;-84
2022/08/24 15:53:39;;;;;;;1.10;0.50;;;30.50;91.00;;;;;;5031622;28;20048;-83